Time;durP1;ratioP1;P1;durP2;ratioP2;P2;SDS_P1;SDS_P2;PMS_P1;PMS_P2;Temp;Humidity;BMP_temperature;BMP_pressure;BME280_temperature;BME280_humidity;BME280_pressure;Samples;Min_cycle;Max_cycle;Signal;HPM_P1;HPM_P2
2021/08/05 00:01:24;;;;;;;11.63;9.97;;;17.30;99.90;;;;;;5046248;28;20310;-48
2021/08/05 00:03:51;;;;;;;11.60;10.27;;;17.30;99.90;;;;;;5044883;28;20298;-48
2021/08/05 00:06:24;;;;;;;11.63;10.43;;;17.40;99.90;;;;;;5045772;28;20241;-48
2021/08/05 00:08:51;;;;;;;14.00;11.70;;;17.30;99.90;;;;;;5045913;28;20681;-48
2021/08/05 00:11:17;;;;;;;15.57;12.77;;;17.10;99.90;;;;;;5047003;28;20290;-48
2021/08/05 00:13:44;;;;;;;13.60;11.70;;;17.00;99.90;;;;;;5045082;28;20239;-48
2021/08/05 00:16:11;;;;;;;13.77;12.07;;;17.00;99.90;;;;;;5046367;28;20237;-48
2021/08/05 00:18:38;;;;;;;13.90;10.87;;;17.10;99.90;;;;;;5044924;28;20215;-48
2021/08/05 00:21:05;;;;;;;14.43;11.60;;;17.20;99.90;;;;;;5046395;28;20647;-48
2021/08/05 00:23:31;;;;;;;16.07;13.10;;;17.10;99.90;;;;;;5045808;28;20685;-48
2021/08/05 00:25:58;;;;;;;16.27;12.00;;;16.90;99.90;;;;;;5046446;28;20637;-48
2021/08/05 00:28:26;;;;;;;14.97;12.67;;;16.90;99.90;;;;;;5045777;28;20381;-48
2021/08/05 00:30:52;;;;;;;15.33;12.37;;;16.90;99.90;;;;;;5061335;28;20234;-49
2021/08/05 00:33:20;;;;;;;14.27;12.60;;;16.90;99.90;;;;;;5046709;28;20688;-48
2021/08/05 00:35:47;;;;;;;14.23;12.33;;;16.70;99.90;;;;;;5045139;28;20309;-48
2021/08/05 00:38:13;;;;;;;14.23;12.63;;;16.70;99.90;;;;;;5046696;28;20303;-48
2021/08/05 00:40:41;;;;;;;16.57;14.03;;;16.70;99.90;;;;;;5045682;28;20257;-47
2021/08/05 00:43:08;;;;;;;21.27;12.97;;;16.50;99.90;;;;;;5045593;28;20297;-47
2021/08/05 00:45:34;;;;;;;20.53;13.90;;;16.50;99.90;;;;;;5046405;28;20290;-48
2021/08/05 00:48:01;;;;;;;14.47;12.97;;;16.40;99.90;;;;;;5046719;28;20253;-47
2021/08/05 00:50:28;;;;;;;15.40;12.80;;;16.40;99.90;;;;;;5049311;28;20245;-47
2021/08/05 00:52:55;;;;;;;15.97;13.77;;;16.40;99.90;;;;;;5049320;28;20206;-48
2021/08/05 00:55:22;;;;;;;16.13;13.23;;;16.50;99.90;;;;;;5050049;28;20255;-48
2021/08/05 00:57:49;;;;;;;15.33;12.47;;;16.60;99.90;;;;;;5050062;28;20281;-47
2021/08/05 01:00:16;;;;;;;14.80;12.80;;;16.60;99.90;;;;;;5050806;28;20290;-48
2021/08/05 01:02:48;;;;;;;16.20;12.87;;;16.50;99.90;;;;;;5049826;28;20530;-48
2021/08/05 01:05:18;;;;;;;15.30;12.73;;;16.50;99.90;;;;;;5063175;28;20201;-48
2021/08/05 01:07:59;;;;;;;15.83;13.00;;;16.50;99.90;;;;;;5050641;28;20280;-48
2021/08/05 01:10:39;;;;;;;14.97;12.57;;;16.60;99.90;;;;;;5049380;28;20215;-48
2021/08/05 01:13:25;;;;;;;16.83;13.17;;;16.60;99.90;;;;;;5049626;28;20210;-48
2021/08/05 01:15:54;;;;;;;15.37;13.27;;;16.50;99.90;;;;;;5049385;28;20240;-48
2021/08/05 01:18:27;;;;;;;15.93;13.10;;;16.50;99.90;;;;;;5049523;28;20242;-48
2021/08/05 01:20:55;;;;;;;14.67;12.90;;;16.40;99.90;;;;;;5048953;28;20691;-48
2021/08/05 01:23:32;;;;;;;13.63;11.87;;;16.30;99.90;;;;;;5048684;28;20211;-48
2021/08/05 01:26:09;;;;;;;16.63;12.60;;;16.40;99.90;;;;;;5049431;28;20210;-48
2021/08/05 01:28:37;;;;;;;15.80;12.97;;;16.50;99.90;;;;;;5048413;28;20212;-48
2021/08/05 01:31:07;;;;;;;13.33;11.93;;;16.60;99.90;;;;;;5049329;28;20275;-48
2021/08/05 01:33:36;;;;;;;14.70;12.40;;;16.70;99.90;;;;;;5048689;28;20211;-48
2021/08/05 01:36:05;;;;;;;15.60;11.93;;;16.70;99.90;;;;;;5048608;28;20275;-48
2021/08/05 01:38:34;;;;;;;16.43;13.33;;;16.60;99.90;;;;;;5049018;28;20245;-48
2021/08/05 01:41:05;;;;;;;15.10;12.53;;;16.40;99.90;;;;;;5048933;28;20596;-48
2021/08/05 01:43:33;;;;;;;17.73;13.23;;;16.30;99.90;;;;;;5048873;28;20277;-48
2021/08/05 01:46:00;;;;;;;16.20;13.70;;;16.50;99.90;;;;;;5048316;28;20230;-48
2021/08/05 01:48:30;;;;;;;13.97;12.47;;;16.60;99.90;;;;;;5049000;28;20257;-47
2021/08/05 01:50:58;;;;;;;15.87;13.00;;;16.80;99.90;;;;;;5048008;28;20618;-48
2021/08/05 01:53:26;;;;;;;16.03;12.90;;;16.90;99.90;;;;;;5042337;28;20234;-48
2021/08/05 01:55:53;;;;;;;16.37;13.40;;;16.80;99.90;;;;;;5048694;28;20263;-48
2021/08/05 01:58:19;;;;;;;16.67;12.10;;;16.70;99.90;;;;;;5049076;28;20624;-48
2021/08/05 02:00:46;;;;;;;14.73;12.23;;;16.70;99.90;;;;;;5051028;28;20224;-48
2021/08/05 02:03:14;;;;;;;13.10;11.70;;;16.90;99.90;;;;;;5052985;28;20578;-48
2021/08/05 02:06:32;;;;;;;15.40;13.13;;;17.00;99.90;;;;;;5048613;28;20237;-48
2021/08/05 02:09:19;;;;;;;15.13;12.63;;;17.00;99.90;;;;;;4994599;28;20243;-48
2021/08/05 02:11:49;;;;;;;16.23;12.93;;;17.00;99.90;;;;;;5048262;28;20229;-47
2021/08/05 02:14:19;;;;;;;15.20;12.93;;;17.00;99.90;;;;;;5048334;28;20642;-48
2021/08/05 02:16:49;;;;;;;15.93;13.37;;;17.00;99.90;;;;;;5048962;28;20254;-48
2021/08/05 02:19:16;;;;;;;15.43;12.97;;;17.10;99.90;;;;;;5048720;28;20236;-48
2021/08/05 02:21:44;;;;;;;16.27;13.20;;;17.20;99.90;;;;;;5047620;28;20264;-47
2021/08/05 02:24:13;;;;;;;16.03;13.70;;;17.10;99.90;;;;;;5048138;28;20651;-48
2021/08/05 02:26:40;;;;;;;15.53;12.73;;;17.20;99.90;;;;;;5047331;28;20233;-48
2021/08/05 02:29:08;;;;;;;14.53;12.73;;;17.20;99.90;;;;;;5048599;28;20690;-48
2021/08/05 02:31:36;;;;;;;16.13;12.93;;;17.10;99.90;;;;;;5047109;28;20255;-47
2021/08/05 02:34:07;;;;;;;17.97;13.77;;;17.20;99.90;;;;;;5047406;28;20216;-48
2021/08/05 02:36:34;;;;;;;15.03;13.33;;;17.20;99.90;;;;;;5047242;28;20267;-48
2021/08/05 02:39:01;;;;;;;13.37;11.97;;;17.20;99.90;;;;;;5047492;28;20579;-48
2021/08/05 02:41:29;;;;;;;16.77;13.30;;;17.20;99.90;;;;;;5047017;28;20610;-48
2021/08/05 02:43:57;;;;;;;14.53;12.53;;;17.20;99.90;;;;;;5048048;28;20239;-48
2021/08/05 02:46:25;;;;;;;16.83;14.00;;;17.30;99.90;;;;;;5047961;28;20207;-48
2021/08/05 02:48:54;;;;;;;17.87;13.47;;;17.10;99.90;;;;;;5047209;28;20211;-47
2021/08/05 02:51:22;;;;;;;14.83;13.23;;;16.90;99.90;;;;;;5047627;28;20277;-48
2021/08/05 02:53:49;;;;;;;17.00;13.50;;;16.60;99.90;;;;;;5046294;28;20203;-48
2021/08/05 02:56:16;;;;;;;18.00;14.87;;;16.50;99.90;;;;;;5046554;28;20246;-48
2021/08/05 02:58:44;;;;;;;17.77;13.90;;;16.40;99.90;;;;;;5047745;28;20211;-48
2021/08/05 03:01:11;;;;;;;18.97;15.87;;;16.30;99.90;;;;;;5047601;28;20302;-48
2021/08/05 03:03:40;;;;;;;18.70;15.03;;;16.30;99.90;;;;;;5046951;28;20678;-48
2021/08/05 03:06:08;;;;;;;18.43;14.47;;;16.50;99.90;;;;;;5046635;28;20284;-48
2021/08/05 03:08:40;;;;;;;18.80;15.40;;;16.70;99.90;;;;;;5047309;28;20300;-48
2021/08/05 03:11:07;;;;;;;18.40;15.07;;;16.80;99.90;;;;;;5046609;28;20243;-48
2021/08/05 03:13:34;;;;;;;18.33;15.27;;;16.80;99.90;;;;;;5046740;28;20252;-48
2021/08/05 03:16:01;;;;;;;16.63;14.60;;;16.90;99.90;;;;;;5047436;28;20318;-48
2021/08/05 03:18:28;;;;;;;20.10;15.67;;;16.90;99.90;;;;;;5046965;28;20320;-48
2021/08/05 03:20:54;;;;;;;21.90;15.63;;;16.90;99.90;;;;;;5046479;28;20573;-48
2021/08/05 03:23:21;;;;;;;16.23;14.07;;;16.90;99.90;;;;;;5045455;28;20300;-48
2021/08/05 03:25:48;;;;;;;16.93;14.23;;;16.90;99.90;;;;;;5045771;28;20718;-48
2021/08/05 03:28:15;;;;;;;17.87;14.03;;;16.90;99.90;;;;;;5045823;28;20206;-48
2021/08/05 03:30:42;;;;;;;19.03;14.10;;;16.80;99.90;;;;;;5047276;28;20295;-48
2021/08/05 03:33:08;;;;;;;18.53;15.03;;;16.80;99.90;;;;;;5047042;28;20344;-48
2021/08/05 03:35:35;;;;;;;18.53;15.20;;;16.60;99.90;;;;;;5045804;28;20291;-48
2021/08/05 03:38:02;;;;;;;20.97;16.30;;;16.40;99.90;;;;;;5045505;28;20689;-48
2021/08/05 03:40:29;;;;;;;20.73;16.03;;;16.20;99.90;;;;;;5046822;28;20298;-49
2021/08/05 03:42:55;;;;;;;22.30;17.00;;;16.10;99.90;;;;;;5046296;28;20294;-48
2021/08/05 03:45:22;;;;;;;19.80;15.67;;;16.30;99.90;;;;;;5047438;28;20700;-47
2021/08/05 03:47:49;;;;;;;19.77;16.17;;;16.50;99.90;;;;;;5046090;28;20227;-47
2021/08/05 03:50:17;;;;;;;22.40;17.10;;;16.70;99.90;;;;;;5046728;28;20404;-47
2021/08/05 03:52:43;;;;;;;20.73;17.23;;;16.70;99.90;;;;;;5046274;28;20548;-47
2021/08/05 03:55:13;;;;;;;20.07;16.27;;;16.80;99.90;;;;;;5045718;28;20238;-47
2021/08/05 03:57:40;;;;;;;22.67;17.00;;;16.80;99.90;;;;;;5046105;28;20650;-47
2021/08/05 04:00:11;;;;;;;20.33;14.77;;;16.80;99.90;;;;;;5046287;28;20215;-48
2021/08/05 04:02:38;;;;;;;22.63;15.73;;;16.90;99.90;;;;;;5046108;28;20668;-48
2021/08/05 04:05:05;;;;;;;19.63;15.23;;;16.90;99.90;;;;;;5043829;28;20238;-48
2021/08/05 04:07:32;;;;;;;20.03;16.13;;;16.90;99.90;;;;;;5044791;28;20238;-48
2021/08/05 04:09:59;;;;;;;20.00;17.17;;;16.90;99.90;;;;;;5046257;28;20212;-47
2021/08/05 04:12:26;;;;;;;19.33;16.37;;;16.90;99.90;;;;;;5046305;28;20239;-48
2021/08/05 04:14:53;;;;;;;17.97;15.07;;;16.90;99.90;;;;;;5045416;28;20277;-47
2021/08/05 04:17:20;;;;;;;21.40;16.27;;;16.90;99.90;;;;;;5045998;28;20219;-47
2021/08/05 04:19:47;;;;;;;18.03;15.07;;;17.00;99.90;;;;;;5045268;28;20254;-48
2021/08/05 04:22:16;;;;;;;19.17;16.07;;;17.10;99.90;;;;;;5046160;28;20627;-48
2021/08/05 04:24:42;;;;;;;17.63;14.47;;;17.10;99.90;;;;;;5045678;28;20291;-48
2021/08/05 04:27:09;;;;;;;18.03;15.20;;;17.20;99.90;;;;;;5046123;28;20199;-48
2021/08/05 04:29:36;;;;;;;17.80;14.90;;;17.20;99.90;;;;;;5045958;28;20290;-48
2021/08/05 04:32:03;;;;;;;19.93;16.00;;;17.20;99.90;;;;;;5045586;28;20239;-48
2021/08/05 04:34:30;;;;;;;18.77;15.30;;;17.10;99.90;;;;;;5044959;28;20226;-48
2021/08/05 04:36:56;;;;;;;18.97;16.37;;;17.20;99.90;;;;;;5045497;28;20742;-48
2021/08/05 04:39:23;;;;;;;19.23;16.57;;;17.00;99.90;;;;;;5045037;28;20297;-48
2021/08/05 04:41:50;;;;;;;20.80;16.37;;;17.00;99.90;;;;;;5045077;28;20296;-48
2021/08/05 04:44:17;;;;;;;22.13;17.07;;;17.20;99.90;;;;;;5044940;28;20208;-48
2021/08/05 04:46:43;;;;;;;20.80;16.00;;;17.00;99.90;;;;;;5045651;28;20240;-47
2021/08/05 04:49:10;;;;;;;18.60;15.90;;;17.10;99.90;;;;;;5044072;28;21677;-48
2021/08/05 04:51:37;;;;;;;18.30;15.43;;;17.20;99.90;;;;;;5045432;28;20235;-48
2021/08/05 04:54:04;;;;;;;18.10;16.03;;;17.30;99.90;;;;;;5045006;28;20574;-48
2021/08/05 04:56:32;;;;;;;19.93;16.07;;;17.40;99.90;;;;;;5045290;28;20226;-48
2021/08/05 04:58:59;;;;;;;19.60;16.77;;;17.30;99.90;;;;;;5044717;28;20307;-48
2021/08/05 05:01:26;;;;;;;21.43;16.30;;;17.10;99.90;;;;;;5045517;28;20312;-48
2021/08/05 05:03:53;;;;;;;20.00;15.97;;;17.00;99.90;;;;;;5044267;28;20202;-48
2021/08/05 05:06:20;;;;;;;22.10;16.20;;;16.90;99.90;;;;;;5045079;28;20219;-48
2021/08/05 05:08:47;;;;;;;22.33;16.33;;;16.60;99.90;;;;;;5045150;28;20301;-49
2021/08/05 05:11:14;;;;;;;21.10;16.87;;;16.50;99.90;;;;;;5045311;28;20238;-48
2021/08/05 05:13:40;;;;;;;20.93;17.03;;;16.70;99.90;;;;;;5044528;28;20563;-48
2021/08/05 05:16:07;;;;;;;22.03;17.00;;;16.90;99.90;;;;;;5045216;28;20270;-48
2021/08/05 05:18:34;;;;;;;19.90;16.90;;;16.70;99.90;;;;;;5044079;28;20220;-48
2021/08/05 05:21:01;;;;;;;20.90;17.53;;;16.50;99.90;;;;;;5045393;28;20198;-48
2021/08/05 05:23:27;;;;;;;19.93;16.97;;;16.40;99.90;;;;;;5045203;28;20286;-48
2021/08/05 05:25:54;;;;;;;22.23;17.83;;;16.40;99.90;;;;;;5046397;28;20290;-48
2021/08/05 05:28:21;;;;;;;21.87;17.73;;;16.40;99.90;;;;;;5044691;28;20230;-48
2021/08/05 05:30:48;;;;;;;23.93;18.03;;;16.50;99.90;;;;;;5045123;28;20243;-48
2021/08/05 05:33:15;;;;;;;22.47;17.47;;;16.40;99.90;;;;;;5044318;28;20660;-48
2021/08/05 05:35:42;;;;;;;21.70;18.00;;;16.40;99.90;;;;;;5048556;28;20247;-48
2021/08/05 05:38:10;;;;;;;21.07;16.87;;;16.40;99.90;;;;;;5049247;28;20278;-48
2021/08/05 05:40:38;;;;;;;23.77;18.73;;;16.50;99.90;;;;;;5049119;28;20279;-48
2021/08/05 05:43:05;;;;;;;21.83;18.20;;;16.60;99.90;;;;;;5047500;28;20265;-48
2021/08/05 05:45:33;;;;;;;21.03;17.53;;;16.60;99.90;;;;;;5049277;28;20601;-48
2021/08/05 05:48:00;;;;;;;19.63;17.13;;;16.90;99.90;;;;;;5047979;28;20255;-48
2021/08/05 05:50:29;;;;;;;22.30;17.27;;;17.00;99.90;;;;;;5048483;28;20574;-48
2021/08/05 05:52:57;;;;;;;23.70;17.57;;;17.10;99.90;;;;;;5048534;28;20213;-48
2021/08/05 05:55:24;;;;;;;24.00;17.87;;;17.20;99.90;;;;;;5048369;28;20723;-48
2021/08/05 05:57:51;;;;;;;21.30;16.80;;;17.30;99.90;;;;;;5049407;28;20328;-48
2021/08/05 06:00:18;;;;;;;23.03;18.53;;;17.30;99.90;;;;;;5043938;28;20243;-48
2021/08/05 06:02:45;;;;;;;20.07;17.77;;;17.40;99.90;;;;;;5047901;28;20281;-48
2021/08/05 06:05:12;;;;;;;23.40;17.30;;;17.30;99.90;;;;;;5046071;28;20269;-47
2021/08/05 06:07:57;;;;;;;23.60;19.07;;;17.30;99.90;;;;;;5048769;28;20641;-50
2021/08/05 06:10:24;;;;;;;24.37;19.73;;;17.40;99.90;;;;;;5047949;28;20689;-48
2021/08/05 06:12:51;;;;;;;25.00;19.77;;;17.50;99.90;;;;;;5049676;28;20257;-48
2021/08/05 06:15:18;;;;;;;23.83;19.13;;;17.50;99.90;;;;;;5047481;28;20238;-48
2021/08/05 06:17:45;;;;;;;26.33;20.17;;;17.50;99.90;;;;;;5049171;28;20252;-49
2021/08/05 06:20:17;;;;;;;27.03;22.23;;;17.60;99.90;;;;;;5047238;28;20202;-49
2021/08/05 06:22:45;;;;;;;28.23;21.23;;;17.50;99.90;;;;;;5048658;28;20206;-49
2021/08/05 06:25:13;;;;;;;24.37;20.53;;;17.30;99.90;;;;;;5047674;28;20270;-48
2021/08/05 06:27:40;;;;;;;27.37;21.53;;;17.40;99.90;;;;;;5049748;28;20238;-49
2021/08/05 06:30:09;;;;;;;23.47;19.97;;;17.50;99.90;;;;;;5047712;28;20627;-49
2021/08/05 06:32:36;;;;;;;28.37;21.57;;;17.50;99.90;;;;;;5049042;28;20233;-49
2021/08/05 06:35:04;;;;;;;26.73;19.87;;;17.60;99.90;;;;;;5047342;28;20296;-49
2021/08/05 06:37:31;;;;;;;26.13;20.47;;;17.70;99.90;;;;;;5048279;28;20372;-49
2021/08/05 06:39:59;;;;;;;25.20;20.53;;;17.80;99.90;;;;;;5047751;28;20275;-49
2021/08/05 06:42:26;;;;;;;25.60;20.37;;;17.80;99.90;;;;;;5047939;28;20298;-48
2021/08/05 06:44:53;;;;;;;25.10;21.60;;;17.80;99.90;;;;;;5047133;28;20718;-47
2021/08/05 06:47:20;;;;;;;28.13;21.07;;;17.80;99.90;;;;;;5047756;28;20207;-48
2021/08/05 06:49:47;;;;;;;24.60;20.90;;;17.80;99.90;;;;;;5046731;28;20295;-48
2021/08/05 06:52:14;;;;;;;24.90;20.93;;;17.90;99.90;;;;;;5047295;28;20211;-50
2021/08/05 06:54:41;;;;;;;26.27;21.93;;;18.00;99.90;;;;;;5046360;28;20246;-50
2021/08/05 06:57:07;;;;;;;27.53;23.13;;;18.00;99.90;;;;;;5047792;28;20234;-47
2021/08/05 06:59:34;;;;;;;26.63;22.93;;;18.10;99.90;;;;;;5046898;28;20294;-48
2021/08/05 07:02:05;;;;;;;29.27;24.17;;;18.30;99.90;;;;;;5046802;28;20488;-47
2021/08/05 07:04:32;;;;;;;28.60;24.60;;;18.20;99.90;;;;;;5046821;28;20207;-47
2021/08/05 07:06:59;;;;;;;28.33;24.67;;;18.40;99.90;;;;;;5046397;28;20214;-48
2021/08/05 07:09:28;;;;;;;30.60;24.03;;;18.50;99.90;;;;;;5047674;28;20232;-48
2021/08/05 07:11:55;;;;;;;31.30;25.30;;;18.50;99.90;;;;;;5047508;28;20300;-48
2021/08/05 07:14:21;;;;;;;28.50;24.47;;;18.70;99.90;;;;;;5046978;28;20238;-48
2021/08/05 07:16:48;;;;;;;26.73;22.90;;;18.90;99.90;;;;;;5047078;28;20710;-48
2021/08/05 07:19:15;;;;;;;27.63;21.93;;;19.20;99.90;;;;;;5046534;28;20635;-47
2021/08/05 07:21:42;;;;;;;23.80;21.27;;;19.30;99.90;;;;;;5046464;28;20228;-48
2021/08/05 07:24:12;;;;;;;26.30;21.30;;;19.30;60.30;;;;;;5047370;28;20644;-48
2021/08/05 07:26:40;;;;;;;25.87;21.40;;;19.60;54.60;;;;;;5046113;28;20192;-48
2021/08/05 07:29:07;;;;;;;25.20;21.63;;;19.70;1.00;;;;;;5047381;28;20720;-47
2021/08/05 07:31:34;;;;;;;26.83;22.77;;;19.70;1.00;;;;;;5045619;28;20239;-48
2021/08/05 07:34:01;;;;;;;26.87;20.77;;;19.60;1.00;;;;;;5045732;28;20263;-48
2021/08/05 07:36:28;;;;;;;22.23;18.87;;;19.70;1.00;;;;;;5046247;28;20243;-47
2021/08/05 07:38:55;;;;;;;24.10;20.70;;;19.80;1.00;;;;;;5046625;28;20224;-48
2021/08/05 07:41:22;;;;;;;24.00;19.30;;;19.90;1.00;;;;;;5045722;28;20296;-48
2021/08/05 07:43:48;;;;;;;25.70;19.10;;;19.90;1.00;;;;;;5047323;28;20196;-48
2021/08/05 07:46:15;;;;;;;24.33;20.57;;;20.00;1.00;;;;;;5045941;28;20357;-48
2021/08/05 07:48:42;;;;;;;22.53;19.67;;;19.70;1.00;;;;;;5046695;28;20612;-48
2021/08/05 07:51:09;;;;;;;20.43;18.13;;;19.80;1.00;;;;;;5046130;28;20240;-48
2021/08/05 07:53:36;;;;;;;23.13;18.83;;;20.20;1.00;;;;;;5045571;28;20214;-48
2021/08/05 07:56:03;;;;;;;21.60;17.63;;;20.40;1.00;;;;;;5045086;28;20208;-48
2021/08/05 07:58:29;;;;;;;21.30;18.83;;;20.40;1.00;;;;;;5046592;28;20323;-49
2021/08/05 08:00:56;;;;;;;20.27;17.37;;;20.10;1.00;;;;;;5046296;28;20453;-48
2021/08/05 08:03:23;;;;;;;20.83;16.90;;;19.90;1.00;;;;;;5044929;28;20208;-48
2021/08/05 08:05:50;;;;;;;22.77;17.70;;;19.90;1.00;;;;;;5042993;28;20238;-48
2021/08/05 08:08:17;;;;;;;19.27;17.20;;;19.80;1.00;;;;;;5046780;28;20291;-48
2021/08/05 08:10:44;;;;;;;20.80;17.90;;;19.90;1.00;;;;;;5046042;28;20663;-48
2021/08/05 08:13:25;;;;;;;21.40;17.23;;;19.90;1.00;;;;;;5046045;28;20479;-48
2021/08/05 08:15:51;;;;;;;21.13;18.40;;;19.80;1.00;;;;;;5045885;28;20263;-48
2021/08/05 08:18:18;;;;;;;19.10;17.13;;;19.90;1.00;;;;;;5046078;28;20684;-47
2021/08/05 08:20:46;;;;;;;18.83;16.73;;;20.00;1.00;;;;;;5044571;28;20648;-48
2021/08/05 08:23:13;;;;;;;23.03;16.93;;;20.20;1.00;;;;;;5044787;28;20302;-48
2021/08/05 08:25:40;;;;;;;17.27;15.03;;;20.30;1.00;;;;;;5045692;28;20313;-47
2021/08/05 08:28:07;;;;;;;19.40;16.90;;;20.30;1.00;;;;;;5045437;28;20257;-48
2021/08/05 08:30:35;;;;;;;17.43;15.63;;;20.50;1.00;;;;;;5045757;28;20259;-47
2021/08/05 08:33:03;;;;;;;19.67;16.77;;;20.80;1.00;;;;;;5046101;28;20297;-47
2021/08/05 08:35:30;;;;;;;18.03;15.73;;;20.80;1.00;;;;;;5045316;28;20207;-48
2021/08/05 08:37:57;;;;;;;18.17;15.93;;;21.00;99.90;;;;;;5045652;28;20282;-48
2021/08/05 08:40:24;;;;;;;19.20;15.40;;;21.00;1.00;;;;;;5046344;28;20644;-48
2021/08/05 08:42:51;;;;;;;16.27;13.67;;;21.20;1.00;;;;;;5043456;28;20231;-48
2021/08/05 08:45:18;;;;;;;17.03;13.87;;;21.40;99.90;;;;;;5045966;28;20208;-48
2021/08/05 08:47:50;;;;;;;17.67;15.70;;;21.60;1.00;;;;;;5045471;28;20244;-48
2021/08/05 08:50:17;;;;;;;18.30;14.00;;;21.80;99.90;;;;;;5045594;28;20242;-48
2021/08/05 08:52:46;;;;;;;13.37;11.50;;;21.60;1.00;;;;;;5044984;28;20236;-47
2021/08/05 08:55:13;;;;;;;15.17;12.33;;;22.00;1.00;;;;;;5044791;28;20615;-48
2021/08/05 08:57:41;;;;;;;17.07;13.80;;;22.40;99.90;;;;;;5045046;28;20235;-48
2021/08/05 09:00:10;;;;;;;16.13;14.17;;;22.30;1.00;;;;;;5045156;28;20326;-48
2021/08/05 09:02:36;;;;;;;15.63;13.90;;;22.20;99.90;;;;;;5045713;28;20318;-48
2021/08/05 09:05:06;;;;;;;15.97;13.63;;;22.40;1.00;;;;;;5043776;28;20208;-48
2021/08/05 09:07:34;;;;;;;14.87;12.83;;;22.30;1.00;;;;;;5044737;28;20200;-48
2021/08/05 09:10:01;;;;;;;14.50;11.83;;;22.60;1.00;;;;;;5047033;28;20526;-48
2021/08/05 09:12:28;;;;;;;16.97;12.33;;;22.90;99.90;;;;;;5049971;28;20297;-48
2021/08/05 09:14:55;;;;;;;13.73;12.23;;;22.80;99.90;;;;;;5048363;28;20293;-48
2021/08/05 09:17:30;;;;;;;13.07;11.23;;;23.00;1.00;;;;;;5049186;28;20207;-48
2021/08/05 09:20:04;;;;;;;12.73;11.27;;;22.90;1.00;;;;;;5048017;28;20272;-48
2021/08/05 09:22:39;;;;;;;12.30;10.50;;;22.60;1.00;;;;;;5049419;28;20634;-48
2021/08/05 09:25:26;;;;;;;13.07;10.33;;;22.50;1.00;;;;;;5048050;28;20251;-48
2021/08/05 09:27:56;;;;;;;12.80;10.83;;;22.80;99.90;;;;;;5049407;28;20283;-48
2021/08/05 09:30:37;;;;;;;12.83;10.57;;;23.40;1.00;;;;;;5048600;28;20291;-47
2021/08/05 09:33:11;;;;;;;12.60;10.37;;;23.80;99.90;;;;;;5047804;28;20336;-48
2021/08/05 09:35:40;;;;;;;11.90;10.70;;;24.00;1.00;;;;;;5048745;28;20291;-48
2021/08/05 09:38:22;;;;;;;11.07;9.83;;;23.80;1.00;;;;;;5048316;28;20211;-48
2021/08/05 09:41:09;;;;;;;12.60;9.53;;;23.70;1.00;;;;;;5048062;28;20598;-48
2021/08/05 09:43:38;;;;;;;8.37;7.47;;;24.00;1.00;;;;;;5048791;28;20201;-48
2021/08/05 09:46:05;;;;;;;10.30;9.20;;;23.90;1.00;;;;;;5048473;28;20246;-47
2021/08/05 09:48:36;;;;;;;9.23;8.33;;;23.90;1.00;;;;;;5048924;28;20545;-48
2021/08/05 09:51:07;;;;;;;9.90;8.67;;;23.40;1.00;;;;;;5047679;28;20266;-47
2021/08/05 09:53:35;;;;;;;10.77;8.90;;;23.20;1.00;;;;;;5047636;28;20290;-47
2021/08/05 09:56:12;;;;;;;10.50;8.97;;;22.60;1.00;;;;;;5046020;28;20208;-47
2021/08/05 09:58:39;;;;;;;9.27;7.80;;;22.30;23.70;;;;;;5048139;28;20263;-47
2021/08/05 10:01:16;;;;;;;9.93;8.93;;;22.30;99.90;;;;;;5047188;28;20225;-47
2021/08/05 10:03:44;;;;;;;14.07;9.47;;;22.30;99.90;;;;;;5046809;28;21086;-48
2021/08/05 10:06:10;;;;;;;10.93;9.80;;;22.30;99.90;;;;;;5046886;28;20225;-47
2021/08/05 10:08:43;;;;;;;11.37;9.57;;;22.00;1.00;;;;;;5048357;28;20236;-47
2021/08/05 10:11:10;;;;;;;13.10;9.27;;;22.20;1.00;;;;;;5048831;28;20238;-48
2021/08/05 10:13:39;;;;;;;11.07;9.00;;;22.90;1.00;;;;;;5047250;28;20314;-47
2021/08/05 10:16:08;;;;;;;10.30;9.17;;;23.20;91.10;;;;;;5048511;28;20842;-47
2021/08/05 10:18:37;;;;;;;10.83;9.73;;;23.40;1.00;;;;;;5047460;28;20260;-48
2021/08/05 10:21:10;;;;;;;9.67;8.13;;;23.30;32.90;;;;;;5048046;28;20284;-47
2021/08/05 10:23:40;;;;;;;11.10;9.00;;;23.70;1.00;;;;;;5047219;28;20297;-48
2021/08/05 10:26:08;;;;;;;9.53;8.53;;;24.00;1.00;;;;;;5048692;28;20208;-48
2021/08/05 10:28:38;;;;;;;11.30;10.17;;;24.10;1.00;;;;;;5046892;28;20328;-48
2021/08/05 10:31:08;;;;;;;9.30;8.30;;;23.60;1.00;;;;;;5048676;28;20244;-48
2021/08/05 10:33:35;;;;;;;10.37;8.30;;;23.80;1.00;;;;;;5047689;28;20216;-48
2021/08/05 10:36:03;;;;;;;8.80;7.90;;;23.60;1.00;;;;;;5047836;28;20294;-49
2021/08/05 10:38:30;;;;;;;10.03;8.43;;;23.70;1.00;;;;;;5047599;28;20758;-48
2021/08/05 10:41:00;;;;;;;9.30;8.30;;;23.80;1.00;;;;;;5046867;28;20203;-48
2021/08/05 10:43:27;;;;;;;8.97;8.07;;;23.80;1.00;;;;;;5047432;28;20717;-48
2021/08/05 10:45:55;;;;;;;8.63;7.57;;;23.80;99.90;;;;;;5047349;28;20298;-48
2021/08/05 10:48:22;;;;;;;8.20;7.33;;;23.80;99.90;;;;;;5048078;28;20701;-48
2021/08/05 10:50:50;;;;;;;8.97;8.07;;;23.80;1.00;;;;;;5047385;28;20239;-48
2021/08/05 10:53:32;;;;;;;8.50;7.67;;;24.00;1.00;;;;;;5047205;28;20641;-48
2021/08/05 10:56:27;;;;;;;9.10;8.20;;;24.00;99.90;;;;;;5046283;28;20261;-48
2021/08/05 10:59:10;;;;;;;9.77;7.57;;;24.20;99.90;;;;;;5047212;28;20327;-48
2021/08/05 11:01:47;;;;;;;9.13;7.90;;;24.10;1.00;;;;;;5046990;28;20197;-47
2021/08/05 11:04:32;;;;;;;8.43;7.53;;;23.70;1.00;;;;;;5046658;28;20650;-50
2021/08/05 11:07:23;;;;;;;8.90;8.00;;;23.60;1.00;;;;;;5046635;28;20656;-48
2021/08/05 11:10:11;;;;;;;12.20;9.70;;;23.60;1.00;;;;;;5048078;28;20210;-48
2021/08/05 11:13:21;;;;;;;9.47;8.20;;;23.30;1.00;;;;;;5047134;28;20242;-48
2021/08/05 11:15:49;;;;;;;9.30;8.33;;;23.50;99.90;;;;;;5038868;28;20818;-47
2021/08/05 11:18:17;;;;;;;12.20;9.40;;;23.90;1.00;;;;;;5046742;28;20719;-48
2021/08/05 11:20:51;;;;;;;8.83;7.57;;;24.20;99.90;;;;;;5046102;28;20269;-48
2021/08/05 11:23:37;;;;;;;11.43;8.80;;;24.50;1.00;;;;;;5046208;28;20727;-48
2021/08/05 11:26:06;;;;;;;8.93;8.03;;;24.20;1.00;;;;;;5047063;28;20370;-48
2021/08/05 11:28:40;;;;;;;12.83;10.13;;;24.80;1.00;;;;;;5045862;28;20301;-47
2021/08/05 11:31:12;;;;;;;11.00;9.90;;;24.80;34.60;;;;;;5045981;28;20314;-48
2021/08/05 11:33:42;;;;;;;9.73;8.80;;;24.70;99.90;;;;;;5045992;28;20247;-48
2021/08/05 11:38:58;;;;;;;11.07;8.83;;;24.40;99.90;;;;;;5047340;28;20249;-48
2021/08/05 11:41:43;;;;;;;9.53;8.53;;;25.00;99.90;;;;;;5047120;28;20625;-48
2021/08/05 11:44:33;;;;;;;11.83;10.03;;;25.50;99.90;;;;;;5047100;28;20350;-48
2021/08/05 11:47:00;;;;;;;9.27;8.40;;;25.30;1.00;;;;;;5047149;28;20214;-48
2021/08/05 11:50:00;;;;;;;11.07;9.23;;;25.70;1.00;;;;;;5046010;28;20305;-48
2021/08/05 11:52:26;;;;;;;10.63;9.53;;;25.70;1.00;;;;;;5046583;28;20206;-48
2021/08/05 11:55:02;;;;;;;9.77;8.33;;;25.50;1.00;;;;;;5045596;28;20747;-48
2021/08/05 11:57:35;;;;;;;10.37;9.27;;;25.90;1.00;;;;;;5045723;28;20798;-48
2021/08/05 12:00:06;;;;;;;9.30;8.30;;;25.80;1.00;;;;;;5046340;28;20586;-48
2021/08/05 12:02:33;;;;;;;12.67;9.23;;;26.10;1.00;;;;;;5043689;28;20228;-48
2021/08/05 12:05:00;;;;;;;11.17;9.97;;;25.90;1.00;;;;;;5044703;28;20217;-48
2021/08/05 12:07:29;;;;;;;11.23;10.10;;;26.00;1.00;;;;;;5044696;28;20279;-48
2021/08/05 12:10:02;;;;;;;10.20;9.13;;;25.80;1.00;;;;;;5045919;28;20212;-48
2021/08/05 12:12:35;;;;;;;10.33;8.60;;;25.90;1.00;;;;;;5046180;28;20683;-48
2021/08/05 12:15:03;;;;;;;11.73;9.20;;;26.00;1.00;;;;;;5045931;28;20273;-48
2021/08/05 12:17:45;;;;;;;10.80;9.10;;;26.40;1.00;;;;;;5046202;28;20210;-48
2021/08/05 12:20:16;;;;;;;7.60;6.83;;;26.60;1.00;;;;;;5044748;28;20211;-49
2021/08/05 12:22:55;;;;;;;8.10;7.13;;;26.10;1.00;;;;;;5046444;28;20237;-48
2021/08/05 12:25:41;;;;;;;9.70;8.00;;;26.60;1.00;;;;;;5045371;28;20228;-48
2021/08/05 12:28:19;;;;;;;7.90;7.00;;;26.30;1.00;;;;;;5045592;28;20298;-48
2021/08/05 12:30:49;;;;;;;8.23;6.97;;;25.90;1.00;;;;;;5044917;28;20256;-48
2021/08/05 12:33:20;;;;;;;8.13;7.07;;;25.90;1.00;;;;;;5060808;28;20237;-48
2021/08/05 12:36:02;;;;;;;5.83;5.33;;;26.00;1.00;;;;;;5045488;28;20270;-48
2021/08/05 12:38:29;;;;;;;8.00;7.20;;;26.40;1.00;;;;;;5045919;28;20293;-48
2021/08/05 12:40:57;;;;;;;6.10;5.40;;;25.90;1.00;;;;;;5045393;28;20651;-48
2021/08/05 12:43:31;;;;;;;6.60;5.90;;;25.20;1.00;;;;;;5047474;28;20282;-48
2021/08/05 12:45:58;;;;;;;6.97;6.27;;;24.90;1.00;;;;;;5048795;28;20324;-48
2021/08/05 12:48:25;;;;;;;7.07;5.77;;;24.90;1.00;;;;;;5050194;28;20258;-48